KCKV/CKV METAR and TAF weather

Enter ICAO airport designator
Station Type Date Time Source
KCKV METAR 2019/12/14 11:16 UTC NOAA

KCKV 141116Z AUTO 30007KT 7SM BKN008 BKN021 OVC026 07/06 A2975 RMK AO2 T00670056


Station Type Date Time Source
KCKV Decoded METAR 2019/12/14 11:16 UTC NOAA

CLARKSVILLE OUTLAW FIELD, TN, United States (KCKV) 36-37N 87-25W 165M
Dec 14, 2019 - 06:16 AM EST / 2019.12.14 1116 UTC
Wind: from the WNW (300 degrees) at 8 MPH (7 KT):0
Visibility: 7 mile(s):0
Sky conditions: overcast
Temperature: 44.1 F (6.7 C)
Dew Point: 42.1 F (5.6 C)
Relative Humidity: 92%
Pressure (altimeter): 29.75 in. Hg (1007 hPa)
ob: KCKV 141116Z AUTO 30007KT 7SM BKN008 BKN021 OVC026 07/06 A2975 RMK AO2 T00670056
cycle: 11

Station Type Date Time Source
KCKV TAF 2019/12/14 12:24 UTC NOAA

TAF KCKV 141122Z 1412/1512 30005KT 6SM BR OVC012
FM141400 VRB04KT P6SM OVC025
FM141700 27008KT P6SM BKN035
FM142300 29005KT P6SM BKN018

Example: see airport list